Terminal Aerodrome Forecast
Issued by NWS Quad Cities IA IL

Home | Current Version | Previous Version | Text Only | Print | Product List | Glossary On
Versions: 1 2 3 4 5 6 7 8 9 10 11 12 13 14 15 16 17 18 19 20 21 22 23 24 25 26 27 28 29 30 31
000
FTUS43 KDVN 240520
TAFDBQ
TAF
KDBQ 240520Z 2406/2506 30008KT P6SM SKC
     FM241600 30017G26KT P6SM SCT050
     FM242100 29013G20KT P6SM BKN050 PROB30 2422/2501 -SHRA BKN040
     FM250100 28007KT P6SM SCT070=

USA.gov is the U.S. government's official web portal to all federal, state and local government web resources and services.